createdAt,value
2018-12-02T00:00:32.781Z,384.23
2018-12-02T00:03:04.029Z,389.33
2018-12-02T00:05:32.070Z,376.90
2018-12-02T00:08:18.145Z,399.37
2018-12-02T00:10:46.282Z,358.23
2018-12-02T00:13:14.333Z,393.37
2018-12-02T00:15:42.844Z,361.77
2018-12-02T00:18:12.331Z,391.77
2018-12-02T00:20:40.660Z,365.33
2018-12-02T00:23:09.588Z,384.77
2018-12-02T00:25:37.607Z,355.60
2018-12-02T00:28:07.622Z,403.37
2018-12-02T00:30:35.746Z,369.00
2018-12-02T00:33:03.832Z,399.70
2018-12-02T00:35:31.783Z,365.63
2018-12-02T00:38:01.301Z,369.63
2018-12-02T00:40:29.308Z,358.27
2018-12-02T00:42:58.571Z,377.73
2018-12-02T00:45:32.254Z,383.83
2018-12-02T00:48:00.888Z,387.73
2018-12-02T00:50:28.957Z,360.73
2018-12-02T00:53:00.513Z,389.13
2018-12-02T00:55:38.370Z,363.90
2018-12-02T00:58:09.429Z,390.53
2018-12-02T01:00:37.447Z,369.53
2018-12-02T01:03:07.652Z,401.07
2018-12-02T01:05:36.715Z,361.13
2018-12-02T01:08:06.012Z,390.87
2018-12-02T01:10:34.054Z,383.07
2018-12-02T01:13:02.049Z,391.40
2018-12-02T01:15:31.430Z,395.23
2018-12-02T01:17:59.467Z,382.20
2018-12-02T01:20:27.501Z,386.60
2018-12-02T01:22:55.754Z,390.77
2018-12-02T01:25:23.715Z,368.13
2018-12-02T01:27:51.631Z,365.87
2018-12-02T01:30:21.771Z,363.33
2018-12-02T01:32:50.893Z,361.53
2018-12-02T01:35:18.978Z,361.00
2018-12-02T01:37:46.998Z,383.80
2018-12-02T01:40:19.893Z,367.20
2018-12-02T01:42:48.790Z,362.67
2018-12-02T01:45:22.337Z,363.37
2018-12-02T01:47:50.650Z,379.90
2018-12-02T01:50:20.009Z,358.90
2018-12-02T01:52:51.929Z,373.00
2018-12-02T01:55:19.940Z,367.20
2018-12-02T01:57:47.945Z,378.57
2018-12-02T02:00:19.011Z,390.17
2018-12-02T02:02:47.248Z,366.43
2018-12-02T02:05:17.654Z,356.87
2018-12-02T02:07:46.243Z,357.10
2018-12-02T02:10:23.302Z,381.03
2018-12-02T02:12:51.328Z,387.40
2018-12-02T02:15:19.421Z,364.90
2018-12-02T02:17:47.528Z,368.97
2018-12-02T02:20:21.730Z,382.20
2018-12-02T02:22:49.731Z,377.73
2018-12-02T02:25:19.019Z,364.83
2018-12-02T02:27:56.608Z,379.63
2018-12-02T02:30:26.881Z,374.83
2018-12-02T02:32:54.914Z,386.23
2018-12-02T02:35:23.088Z,395.83
2018-12-02T02:37:52.620Z,379.10
2018-12-02T02:40:23.894Z,362.97
2018-12-02T02:42:52.268Z,380.57
2018-12-02T02:45:20.195Z,378.97
2018-12-02T02:47:48.162Z,374.07
2018-12-02T02:50:19.585Z,369.23
2018-12-02T02:52:51.930Z,387.83
2018-12-02T02:55:19.917Z,380.10
2018-12-02T02:57:47.890Z,357.50
2018-12-02T03:03:03.359Z,398.37
2018-12-02T03:05:31.297Z,380.93
2018-12-02T03:07:59.359Z,390.83
2018-12-02T03:10:27.442Z,376.27
2018-12-02T03:12:55.437Z,364.23
2018-12-02T03:15:23.692Z,384.37
2018-12-02T03:17:51.682Z,384.83
2018-12-02T03:20:21.483Z,395.80
2018-12-02T03:22:50.908Z,404.10
2018-12-02T03:25:20.008Z,400.50
2018-12-02T03:27:47.979Z,387.63
2018-12-02T03:30:20.080Z,410.00
2018-12-02T03:32:48.299Z,389.73
2018-12-02T03:35:18.572Z,384.60
2018-12-02T03:37:46.564Z,375.23
2018-12-02T03:40:18.927Z,393.97
2018-12-02T03:42:47.011Z,375.63
2018-12-02T03:45:16.639Z,367.90
2018-12-02T03:47:44.677Z,373.90
2018-12-02T03:50:22.362Z,362.17
2018-12-02T03:52:50.682Z,372.80
2018-12-02T03:55:18.716Z,375.23
2018-12-02T03:57:46.683Z,405.57
2018-12-02T04:00:19.603Z,368.80
2018-12-02T04:02:47.767Z,372.03
2018-12-02T04:05:17.051Z,355.27
2018-12-02T04:07:47.701Z,387.90
2018-12-02T04:10:17.422Z,394.80
2018-12-02T04:12:46.725Z,369.03
2018-12-02T04:15:15.856Z,395.00
2018-12-02T04:17:44.885Z,360.10
2018-12-02T04:20:15.793Z,387.43
2018-12-02T04:22:45.599Z,381.87
2018-12-02T04:25:16.788Z,393.87
2018-12-02T04:27:44.831Z,386.40
2018-12-02T04:30:15.727Z,383.43
2018-12-02T04:32:44.152Z,363.63
2018-12-02T04:35:17.509Z,361.83
2018-12-02T04:37:45.524Z,375.47
2018-12-02T04:40:14.078Z,353.10
2018-12-02T04:42:42.139Z,363.23
2018-12-02T04:45:20.673Z,387.87
2018-12-02T04:47:48.956Z,362.30
2018-12-02T04:50:23.839Z,371.50
2018-12-02T04:52:52.220Z,356.03
2018-12-02T04:55:20.258Z,351.20
2018-12-02T04:57:48.223Z,344.53
2018-12-02T05:00:20.914Z,377.17
2018-12-02T05:02:53.535Z,352.80
2018-12-02T05:05:23.844Z,321.90
2018-12-02T05:07:56.731Z,335.03
2018-12-02T05:10:24.659Z,342.00
2018-12-02T05:12:52.595Z,323.80
2018-12-02T05:15:21.351Z,342.43
2018-12-02T05:17:49.304Z,314.10
2018-12-02T05:20:19.369Z,331.63
2018-12-02T05:22:47.327Z,325.83
2018-12-02T05:25:18.045Z,307.97
2018-12-02T05:27:44.267Z,291.10
2018-12-02T05:30:18.412Z,301.37
2018-12-02T05:32:47.745Z,332.30
2018-12-02T05:35:15.679Z,310.60
2018-12-02T05:37:43.621Z,318.57
2018-12-02T05:40:18.639Z,312.17
2018-12-02T05:42:46.547Z,307.73
2018-12-02T05:45:15.526Z,320.73
2018-12-02T05:47:43.611Z,315.43
2018-12-02T05:50:25.006Z,307.77
2018-12-02T05:52:55.356Z,319.97
2018-12-02T05:55:27.643Z,316.90
2018-12-02T05:57:55.821Z,336.60
2018-12-02T06:00:23.838Z,306.40
2018-12-02T06:02:51.789Z,309.90
2018-12-02T06:05:20.359Z,326.03
2018-12-02T06:07:48.353Z,298.27
2018-12-02T06:10:18.475Z,306.17
2018-12-02T06:12:46.483Z,304.20
2018-12-02T06:15:15.693Z,320.53
2018-12-02T06:17:43.696Z,290.10
2018-12-02T06:22:52.250Z,289.83
2018-12-02T06:25:20.178Z,336.43
2018-12-02T06:27:48.118Z,292.13
2018-12-02T06:30:19.428Z,319.37
2018-12-02T06:32:49.735Z,303.47
2018-12-02T06:35:17.708Z,290.50
2018-12-02T06:37:45.723Z,314.40
2018-12-02T06:40:16.459Z,306.20
2018-12-02T06:42:44.619Z,305.13
2018-12-02T06:45:13.262Z,311.80
2018-12-02T06:47:41.222Z,296.33
2018-12-02T06:50:20.523Z,304.50
2018-12-02T06:52:48.500Z,299.87
2018-12-02T06:56:02.014Z,320.50
2018-12-02T06:58:44.643Z,307.03
2018-12-02T07:01:26.733Z,305.07
2018-12-02T07:04:06.446Z,295.97
2018-12-02T07:06:34.331Z,347.53
2018-12-02T07:09:02.469Z,296.83
2018-12-02T07:11:30.389Z,305.07
2018-12-02T07:13:58.362Z,337.33
2018-12-02T07:16:26.518Z,308.47
2018-12-02T07:18:57.056Z,321.50
2018-12-02T07:21:25.686Z,307.10
2018-12-02T07:23:56.571Z,325.13
2018-12-02T07:26:25.311Z,353.57
2018-12-02T07:28:53.286Z,317.97
2018-12-02T07:31:21.251Z,298.13
2018-12-02T07:34:06.264Z,298.30
2018-12-02T07:36:49.296Z,301.83
2018-12-02T07:40:17.018Z,315.53
2018-12-02T07:42:45.015Z,306.07
2018-12-02T07:45:13.049Z,298.13
2018-12-02T07:47:41.041Z,339.10
2018-12-02T07:50:09.355Z,321.60
2018-12-02T07:52:37.462Z,332.27
2018-12-02T07:55:07.322Z,326.03
2018-12-02T07:57:35.412Z,312.10
2018-12-02T08:00:07.818Z,313.33
2018-12-02T08:02:38.402Z,294.30
2018-12-02T08:05:09.170Z,313.17
2018-12-02T08:07:37.187Z,309.80
2018-12-02T08:10:16.553Z,325.30
2018-12-02T08:12:47.021Z,322.90
2018-12-02T08:15:42.888Z,322.63
2018-12-02T08:18:11.570Z,329.17
2018-12-02T08:20:40.475Z,320.43
2018-12-02T08:23:21.103Z,363.27
2018-12-02T08:25:49.087Z,317.93
2018-12-02T08:28:17.088Z,367.33
2018-12-02T08:30:44.999Z,320.90
2018-12-02T08:33:12.955Z,384.60
2018-12-02T08:35:40.944Z,319.20
2018-12-02T08:38:10.220Z,359.80
2018-12-02T08:40:38.201Z,318.47
2018-12-02T08:43:07.520Z,350.73
2018-12-02T08:45:35.749Z,305.97
2018-12-02T08:48:04.131Z,350.23
2018-12-02T08:50:32.324Z,319.63
2018-12-02T08:53:00.293Z,342.57
2018-12-02T08:55:28.252Z,326.37
2018-12-02T08:57:56.190Z,334.80
2018-12-02T09:00:24.279Z,320.37
2018-12-02T09:03:02.117Z,342.77
2018-12-02T09:05:31.004Z,311.63
2018-12-02T09:08:01.256Z,341.00
2018-12-02T09:10:32.509Z,311.37
2018-12-02T09:13:06.457Z,345.67
2018-12-02T09:15:46.396Z,303.73
2018-12-02T09:18:14.703Z,348.23
2018-12-02T09:20:42.619Z,292.83
2018-12-02T09:23:11.528Z,357.77
2018-12-02T09:25:39.510Z,299.47
2018-12-02T09:28:08.495Z,302.20
2018-12-02T09:30:37.254Z,284.80
2018-12-02T09:33:05.378Z,358.63
2018-12-02T09:35:33.272Z,289.33
2018-12-02T09:38:01.239Z,307.30
2018-12-02T09:40:29.307Z,277.10
2018-12-02T09:42:57.292Z,294.30
2018-12-02T09:45:26.808Z,282.97
2018-12-02T09:47:57.999Z,313.23
2018-12-02T09:50:25.964Z,267.27
2018-12-02T09:52:53.912Z,269.87
2018-12-02T09:55:33.841Z,286.87
2018-12-02T09:58:02.681Z,300.90
2018-12-02T10:00:34.067Z,265.43
2018-12-02T10:02:58.543Z,284.27
2018-12-02T10:05:26.475Z,259.60
2018-12-02T10:07:54.466Z,280.43
2018-12-02T10:10:23.158Z,309.90
2018-12-02T10:12:56.757Z,318.97
2018-12-02T10:15:26.223Z,317.30
2018-12-02T10:17:57.202Z,348.63
2018-12-02T10:20:25.263Z,345.43
2018-12-02T10:22:53.235Z,317.47
2018-12-02T10:25:21.444Z,338.07
2018-12-02T10:27:49.932Z,339.90
2018-12-02T10:30:25.695Z,327.30
2018-12-02T10:32:55.169Z,317.23
2018-12-02T10:35:28.805Z,328.33
2018-12-02T10:37:58.771Z,334.90
2018-12-02T10:40:28.182Z,300.00
2018-12-02T10:42:57.396Z,341.67
2018-12-02T10:45:26.815Z,318.23
2018-12-02T10:47:57.734Z,335.63
2018-12-02T10:50:31.126Z,343.50
2018-12-02T10:53:02.103Z,355.83
2018-12-02T10:55:44.440Z,318.80
2018-12-02T10:58:17.813Z,353.27
2018-12-02T11:00:51.839Z,297.37
2018-12-02T11:03:20.693Z,350.57
2018-12-02T11:05:55.684Z,331.67
2018-12-02T11:11:40.059Z,342.27
2018-12-02T11:14:08.083Z,354.03
2018-12-02T11:16:36.156Z,323.67
2018-12-02T11:21:40.316Z,331.50
2018-12-02T11:24:08.364Z,313.07
2018-12-02T11:26:36.439Z,341.17
2018-12-02T11:29:05.226Z,333.87
2018-12-02T11:31:33.201Z,319.40
2018-12-02T11:34:01.256Z,343.10
2018-12-02T11:36:31.704Z,340.17
2018-12-02T11:38:59.783Z,338.13
2018-12-02T11:41:27.789Z,326.63
2018-12-02T11:43:55.850Z,334.20
2018-12-02T11:46:30.752Z,343.20
2018-12-02T11:48:59.435Z,335.57
2018-12-02T11:51:28.032Z,328.30
2018-12-02T11:53:56.184Z,351.23
2018-12-02T11:56:24.282Z,351.77
2018-12-02T11:58:53.472Z,356.40
2018-12-02T12:01:21.446Z,334.83
2018-12-02T12:03:49.693Z,346.77
2018-12-02T12:06:17.785Z,326.93
2018-12-02T12:08:45.776Z,333.77
2018-12-02T12:11:14.181Z,348.13
2018-12-02T12:13:42.333Z,340.80
2018-12-02T12:16:15.363Z,318.57
2018-12-02T12:18:59.178Z,364.60
2018-12-02T12:21:28.396Z,309.43
2018-12-02T12:23:56.386Z,315.37
2018-12-02T12:26:29.547Z,325.20
2018-12-02T12:28:57.607Z,299.87
2018-12-02T12:31:25.619Z,333.80
2018-12-02T12:33:53.577Z,322.73
2018-12-02T12:36:21.601Z,338.67
2018-12-02T12:38:49.512Z,334.90
2018-12-02T12:41:17.674Z,334.90
2018-12-02T12:43:46.276Z,350.57
2018-12-02T12:46:14.286Z,332.27
2018-12-02T12:48:42.403Z,368.07
2018-12-02T12:51:10.709Z,300.83
2018-12-02T12:53:40.086Z,353.40
2018-12-02T12:56:10.123Z,326.17
2018-12-02T12:58:39.690Z,344.30
2018-12-02T13:01:09.297Z,307.33
2018-12-02T13:03:39.507Z,361.37
2018-12-02T13:06:09.603Z,346.30
2018-12-02T13:08:39.390Z,354.73
2018-12-02T13:11:08.858Z,329.93
2018-12-02T13:13:38.358Z,363.93
2018-12-02T13:16:10.062Z,330.13
2018-12-02T13:18:41.225Z,356.93
2018-12-02T13:21:14.421Z,349.27
2018-12-02T13:23:45.202Z,361.40
2018-12-02T13:26:23.169Z,326.27
2018-12-02T13:28:53.229Z,323.03
2018-12-02T13:31:23.678Z,330.43
2018-12-02T13:36:30.832Z,296.10
2018-12-02T13:39:01.242Z,283.40
2018-12-02T13:41:37.617Z,313.47
2018-12-02T13:44:07.737Z,336.60
2018-12-02T13:46:38.414Z,323.03
2018-12-02T13:49:06.448Z,310.93
2018-12-02T13:51:34.459Z,342.37
2018-12-02T13:54:08.272Z,298.80
2018-12-02T13:56:36.760Z,314.37
2018-12-02T13:59:05.431Z,310.03
2018-12-02T14:01:33.438Z,309.50
2018-12-02T14:04:01.900Z,309.63
2018-12-02T14:06:30.810Z,298.90
2018-12-02T14:08:59.406Z,311.90
2018-12-02T14:11:27.771Z,321.00
2018-12-02T14:13:55.848Z,358.20
2018-12-02T14:18:01.616Z,336.87
2018-12-02T14:20:30.016Z,325.17
2018-12-02T14:23:00.937Z,328.70
2018-12-02T14:25:29.625Z,341.37
2018-12-02T14:27:57.737Z,321.97
2018-12-02T14:30:28.147Z,290.50
2018-12-02T14:32:58.684Z,325.90
2018-12-02T14:35:28.173Z,307.70
2018-12-02T14:37:57.316Z,325.03
2018-12-02T14:40:27.256Z,298.60
2018-12-02T14:42:55.366Z,343.03
2018-12-02T14:45:24.946Z,296.77
2018-12-02T14:47:54.820Z,303.97
2018-12-02T14:50:23.431Z,310.90
2018-12-02T14:53:02.505Z,334.50
2018-12-02T14:55:35.459Z,321.17
2018-12-02T14:58:04.383Z,352.23
2018-12-02T15:00:33.138Z,311.10
2018-12-02T15:03:01.443Z,303.07
2018-12-02T15:05:30.192Z,294.47
2018-12-02T15:08:00.864Z,298.57
2018-12-02T15:10:29.253Z,288.37
2018-12-02T15:12:58.593Z,296.10
2018-12-02T15:15:28.648Z,291.07
2018-12-02T15:17:58.459Z,329.47
2018-12-02T15:22:05.184Z,279.83
2018-12-02T15:24:33.318Z,267.17
2018-12-02T15:27:01.550Z,294.10
2018-12-02T15:29:45.399Z,258.43
2018-12-02T15:32:21.552Z,293.57
2018-12-02T15:34:49.627Z,289.40
2018-12-02T15:37:17.835Z,314.70
2018-12-02T15:39:45.843Z,301.50
2018-12-02T15:42:14.096Z,285.90
2018-12-02T15:44:42.546Z,291.27
2018-12-02T15:47:10.779Z,358.00
2018-12-02T15:49:38.858Z,354.03
2018-12-02T15:52:07.494Z,343.67
2018-12-02T15:54:35.603Z,323.27
2018-12-02T15:57:03.696Z,321.30
2018-12-02T15:59:31.990Z,324.37
2018-12-02T16:02:00.104Z,313.83
2018-12-02T16:04:29.010Z,300.37
2018-12-02T16:06:57.791Z,287.37
2018-12-02T16:09:26.749Z,331.57
2018-12-02T16:11:55.174Z,318.60
2018-12-02T16:14:23.319Z,324.47
2018-12-02T16:16:51.469Z,285.90
2018-12-02T16:19:19.559Z,304.10
2018-12-02T16:21:47.756Z,298.73
2018-12-02T16:24:22.512Z,296.63
2018-12-02T16:26:50.558Z,302.97
2018-12-02T16:29:18.679Z,295.40
2018-12-02T16:31:46.924Z,295.10
2018-12-02T16:34:15.255Z,307.97
2018-12-02T16:39:59.298Z,289.47
2018-12-02T16:42:27.449Z,331.83
2018-12-02T16:44:55.460Z,299.77
2018-12-02T16:47:23.399Z,302.13
2018-12-02T16:49:51.367Z,322.83
2018-12-02T16:52:19.398Z,292.03
2018-12-02T16:54:47.423Z,300.17
2018-12-02T16:57:22.431Z,283.03
2018-12-02T16:59:50.615Z,277.00
2018-12-02T17:02:21.632Z,309.60
2018-12-02T17:04:52.864Z,306.13
2018-12-02T17:07:22.185Z,326.70
2018-12-02T17:09:51.712Z,312.43
2018-12-02T17:12:23.614Z,340.67
2018-12-02T17:14:51.796Z,294.90
2018-12-02T17:17:19.791Z,316.80
2018-12-02T17:19:47.862Z,308.67
2018-12-02T17:22:15.844Z,310.80
2018-12-02T17:24:47.676Z,310.03
2018-12-02T17:27:18.110Z,310.23
2018-12-02T17:29:46.020Z,294.90
2018-12-02T17:32:15.310Z,297.03
2018-12-02T17:34:43.267Z,301.40
2018-12-02T17:37:11.327Z,326.80
2018-12-02T17:39:43.898Z,343.77
2018-12-02T17:42:12.620Z,320.77
2018-12-02T17:44:40.574Z,332.17
2018-12-02T17:47:08.579Z,293.10
2018-12-02T17:49:36.631Z,325.27
2018-12-02T17:52:06.228Z,303.20
2018-12-02T17:54:34.284Z,318.47
2018-12-02T17:57:02.275Z,305.90
2018-12-02T17:59:30.403Z,319.80
2018-12-02T18:01:58.391Z,321.53
2018-12-02T18:04:29.245Z,311.17
2018-12-02T18:09:47.322Z,325.27
2018-12-02T18:12:15.981Z,359.20
2018-12-02T18:14:53.860Z,341.70
2018-12-02T18:17:24.346Z,357.13
2018-12-02T18:19:52.551Z,375.43
2018-12-02T18:22:20.536Z,373.03
2018-12-02T18:24:48.460Z,363.17
2018-12-02T18:27:16.640Z,360.10
2018-12-02T18:29:44.824Z,343.93
2018-12-02T18:32:13.613Z,368.07
2018-12-02T18:34:41.594Z,356.67
2018-12-02T18:37:14.726Z,360.97
2018-12-02T18:39:42.763Z,346.40
2018-12-02T18:42:10.792Z,357.87
2018-12-02T18:44:38.713Z,337.43
2018-12-02T18:47:06.783Z,338.23
2018-12-02T18:49:34.791Z,333.13
2018-12-02T18:52:03.005Z,328.63
2018-12-02T18:54:32.500Z,345.33
2018-12-02T18:57:00.477Z,340.63
2018-12-02T18:59:29.763Z,342.27
2018-12-02T19:01:57.883Z,331.83
2018-12-02T19:07:03.832Z,345.53
2018-12-02T19:09:31.829Z,353.53
2018-12-02T19:12:01.115Z,369.77
2018-12-02T19:14:29.092Z,335.17
2018-12-02T19:16:57.675Z,327.87
2018-12-02T19:19:26.013Z,336.03
2018-12-02T19:21:54.042Z,324.07
2018-12-02T19:24:21.960Z,335.80
2018-12-02T19:26:53.347Z,337.40
2018-12-02T19:29:21.411Z,336.03
2018-12-02T19:31:50.329Z,341.33
2018-12-02T19:34:18.724Z,326.73
2018-12-02T19:36:54.241Z,338.63
2018-12-02T19:39:22.196Z,321.23
2018-12-02T19:41:50.265Z,342.97
2018-12-02T19:44:18.751Z,311.77
2018-12-02T19:46:47.404Z,336.50
2018-12-02T19:49:16.689Z,327.37
2018-12-02T19:51:44.757Z,331.80
2018-12-02T19:54:12.915Z,332.87
2018-12-02T19:56:43.391Z,305.97
2018-12-02T19:59:11.759Z,345.13
2018-12-02T20:01:40.738Z,324.97
2018-12-02T20:04:08.920Z,340.83
2018-12-02T20:06:50.589Z,357.10
2018-12-02T20:09:20.812Z,349.40
2018-12-02T20:11:53.597Z,324.17
2018-12-02T20:14:28.092Z,335.70
2018-12-02T20:17:12.105Z,363.73
2018-12-02T20:19:52.639Z,358.53
2018-12-02T20:22:38.746Z,349.63
2018-12-02T20:25:09.334Z,340.13
2018-12-02T20:27:39.323Z,324.07
2018-12-02T20:30:12.795Z,336.03
2018-12-02T20:32:42.371Z,357.63
2018-12-02T20:35:12.216Z,332.70
2018-12-02T20:37:45.017Z,308.33
2018-12-02T20:40:18.553Z,335.03
2018-12-02T20:42:48.483Z,334.43
2018-12-02T20:45:17.434Z,326.47
2018-12-02T20:47:50.109Z,343.03
2018-12-02T20:50:19.853Z,327.13
2018-12-02T20:52:50.271Z,336.33
2018-12-02T20:55:25.383Z,344.63
2018-12-02T20:57:58.498Z,314.00
2018-12-02T21:00:27.778Z,313.60
2018-12-02T21:03:08.670Z,336.93
2018-12-02T21:05:43.039Z,317.70
2018-12-02T21:08:11.071Z,360.63
2018-12-02T21:10:39.863Z,325.00
2018-12-02T21:13:08.096Z,363.87
2018-12-02T21:15:38.147Z,353.47
2018-12-02T21:18:06.851Z,334.97
2018-12-02T21:23:35.603Z,354.67
2018-12-02T21:26:12.701Z,327.20
2018-12-02T21:28:41.285Z,405.30
2018-12-02T21:31:09.377Z,362.03
2018-12-02T21:33:37.445Z,377.17
2018-12-02T21:36:06.128Z,363.17
2018-12-02T21:38:34.124Z,398.33
2018-12-02T21:41:02.162Z,359.37
2018-12-02T21:43:30.071Z,389.97
2018-12-02T21:45:58.117Z,359.77
2018-12-02T21:48:26.073Z,375.47
2018-12-02T21:50:55.492Z,337.30
2018-12-02T21:53:23.529Z,384.80
2018-12-02T21:55:51.415Z,344.73
2018-12-02T21:58:19.381Z,390.30
2018-12-02T22:00:53.130Z,355.77
2018-12-02T22:03:21.055Z,382.17
2018-12-02T22:05:49.012Z,365.10
2018-12-02T22:08:19.412Z,387.97
2018-12-02T22:10:47.614Z,365.57
2018-12-02T22:13:15.599Z,356.07
2018-12-02T22:15:43.513Z,328.53
2018-12-02T22:18:11.516Z,344.73
2018-12-02T22:20:39.481Z,328.53
2018-12-02T22:23:07.403Z,334.07
2018-12-02T22:25:35.326Z,321.20
2018-12-02T22:28:03.364Z,327.97
2018-12-02T22:30:31.289Z,301.23
2018-12-02T22:32:59.241Z,331.60
2018-12-02T22:35:27.716Z,301.70
2018-12-02T22:37:55.789Z,330.53
2018-12-02T22:40:24.620Z,321.00
2018-12-02T22:42:57.830Z,340.40
2018-12-02T22:45:27.861Z,333.03
2018-12-02T22:47:55.793Z,316.53
2018-12-02T22:50:25.702Z,344.60
2018-12-02T22:52:55.167Z,336.67
2018-12-02T22:55:23.097Z,356.00
2018-12-02T22:57:51.139Z,361.30
2018-12-02T23:00:34.299Z,346.07
2018-12-02T23:03:03.671Z,365.70
2018-12-02T23:05:31.846Z,353.13
2018-12-02T23:08:00.096Z,348.03
2018-12-02T23:10:28.103Z,330.77
2018-12-02T23:12:56.204Z,341.97
2018-12-02T23:15:24.691Z,335.60
2018-12-02T23:17:52.695Z,325.10
2018-12-02T23:20:20.719Z,333.37
2018-12-02T23:22:48.634Z,326.97
2018-12-02T23:25:16.619Z,336.53
2018-12-02T23:27:44.580Z,353.40
2018-12-02T23:30:18.768Z,350.30
2018-12-02T23:32:48.256Z,332.63
2018-12-02T23:35:16.302Z,341.87
2018-12-02T23:37:44.232Z,356.23
2018-12-02T23:40:15.588Z,326.43
2018-12-02T23:42:43.614Z,324.63
2018-12-02T23:45:12.791Z,334.00
2018-12-02T23:47:40.807Z,318.90
2018-12-02T23:50:15.883Z,330.20
2018-12-02T23:52:44.129Z,337.33
2018-12-02T23:55:14.262Z,344.80
2018-12-02T23:57:42.291Z,322.37
